Time;durP1;ratioP1;P1;durP2;ratioP2;P2;SDS_P1;SDS_P2;PMS_P1;PMS_P2;Temp;Humidity;BMP_temperature;BMP_pressure;BME280_temperature;BME280_humidity;BME280_pressure;Samples;Min_cycle;Max_cycle;Signal;HPM_P1;HPM_P2
2023/04/17 00:01:07;;;;;;;47.87;26.97;;;8.60;99.90;;;;;;5013598;28;20522;-74
2023/04/17 00:03:36;;;;;;;45.10;28.60;;;8.60;99.90;;;;;;5012908;28;20459;-74
2023/04/17 00:06:03;;;;;;;47.50;27.90;;;8.60;99.90;;;;;;5013479;28;20465;-74
2023/04/17 00:08:30;;;;;;;50.20;28.00;;;8.60;99.90;;;;;;5006147;28;20479;-74
2023/04/17 00:10:57;;;;;;;54.43;29.37;;;8.60;99.90;;;;;;5013474;28;20525;-74
2023/04/17 00:13:23;;;;;;;52.80;28.77;;;8.60;99.90;;;;;;5013135;28;20856;-74
2023/04/17 00:15:50;;;;;;;51.87;29.30;;;8.60;99.90;;;;;;5013273;28;20455;-74
2023/04/17 00:18:16;;;;;;;49.00;29.43;;;8.60;99.90;;;;;;5013220;28;20463;-74
2023/04/17 00:20:44;;;;;;;51.67;28.90;;;8.60;99.90;;;;;;5012624;28;20513;-74
2023/04/17 00:23:11;;;;;;;55.10;30.00;;;8.60;99.90;;;;;;5013431;28;20486;-74
2023/04/17 00:25:38;;;;;;;56.60;29.43;;;8.60;99.90;;;;;;5012669;28;20489;-74
2023/04/17 00:28:04;;;;;;;51.00;28.90;;;8.60;99.90;;;;;;5013210;28;20857;-74
2023/04/17 00:30:31;;;;;;;57.27;31.30;;;8.60;99.90;;;;;;5012466;28;20475;-74
2023/04/17 00:32:58;;;;;;;50.90;29.63;;;8.60;99.90;;;;;;5011585;28;20486;-74
2023/04/17 00:35:24;;;;;;;52.13;29.73;;;8.60;99.90;;;;;;5011955;28;20935;-74
2023/04/17 00:37:52;;;;;;;51.90;29.00;;;8.60;99.90;;;;;;5013153;28;20489;-74
2023/04/17 00:40:19;;;;;;;48.03;29.20;;;8.60;99.90;;;;;;5012686;28;20545;-74
2023/04/17 00:42:51;;;;;;;49.87;29.90;;;8.60;99.90;;;;;;5012924;28;20482;-74
2023/04/17 00:45:19;;;;;;;55.23;29.00;;;8.60;99.90;;;;;;5010616;28;20459;-74
2023/04/17 00:47:45;;;;;;;51.90;28.90;;;8.60;99.90;;;;;;5003640;28;20455;-74
2023/04/17 00:50:13;;;;;;;49.37;30.07;;;8.60;99.90;;;;;;5012304;28;20482;-74
2023/04/17 00:52:39;;;;;;;53.50;30.10;;;8.60;99.90;;;;;;5012334;28;20462;-74
2023/04/17 00:55:08;;;;;;;56.60;29.33;;;8.60;99.90;;;;;;5012240;28;20466;-74
2023/04/17 00:57:35;;;;;;;46.17;28.03;;;8.60;99.90;;;;;;5012670;28;20462;-74
2023/04/17 01:00:03;;;;;;;49.73;29.47;;;8.60;99.90;;;;;;5011830;28;20552;-74
2023/04/17 01:02:30;;;;;;;50.07;30.53;;;8.60;99.90;;;;;;5010255;28;20463;-74
2023/04/17 01:04:56;;;;;;;55.13;30.53;;;8.60;99.90;;;;;;5011591;28;20982;-75
2023/04/17 01:07:23;;;;;;;54.90;30.60;;;8.60;99.90;;;;;;5012185;28;20509;-74
2023/04/17 01:09:50;;;;;;;52.13;30.73;;;8.70;99.90;;;;;;5008389;28;20537;-74
2023/04/17 01:12:20;;;;;;;52.83;29.00;;;8.60;99.90;;;;;;5012358;28;20455;-74
2023/04/17 01:14:47;;;;;;;51.63;31.20;;;8.60;99.90;;;;;;5011751;28;20463;-74
2023/04/17 01:17:14;;;;;;;48.60;29.57;;;8.60;99.90;;;;;;5005301;28;20517;-74
2023/04/17 01:19:40;;;;;;;50.70;30.27;;;8.60;99.90;;;;;;5012002;28;20491;-74
2023/04/17 01:22:08;;;;;;;53.43;30.87;;;8.60;99.90;;;;;;5011612;28;20455;-74
2023/04/17 01:24:36;;;;;;;69.13;32.23;;;8.60;99.90;;;;;;5011815;28;20501;-74
2023/04/17 01:27:02;;;;;;;55.20;30.97;;;8.60;99.90;;;;;;5009046;28;20455;-74
2023/04/17 01:29:29;;;;;;;49.60;30.27;;;8.60;99.90;;;;;;5006972;28;20874;-74
2023/04/17 01:31:56;;;;;;;50.80;30.83;;;8.60;99.90;;;;;;5011570;28;20459;-74
2023/04/17 01:34:23;;;;;;;46.27;29.53;;;8.60;99.90;;;;;;5011542;28;20459;-73
2023/04/17 01:36:49;;;;;;;53.03;33.20;;;8.60;99.90;;;;;;5011704;28;20939;-75
2023/04/17 01:39:16;;;;;;;53.50;32.00;;;8.60;99.90;;;;;;5010410;28;20541;-74
2023/04/17 01:41:44;;;;;;;55.60;30.30;;;8.60;99.90;;;;;;5003777;28;20951;-72
2023/04/17 01:44:11;;;;;;;52.50;30.50;;;8.60;99.90;;;;;;5011066;28;20451;-73
2023/04/17 01:46:38;;;;;;;51.13;30.93;;;8.60;99.90;;;;;;5008551;28;20485;-73
2023/04/17 01:49:04;;;;;;;52.10;29.50;;;8.60;99.90;;;;;;5011648;28;20529;-73
2023/04/17 01:51:31;;;;;;;52.40;31.33;;;8.60;99.90;;;;;;5005772;28;20555;-72
2023/04/17 01:53:58;;;;;;;50.80;29.70;;;8.60;99.90;;;;;;5010145;28;20491;-72
2023/04/17 01:56:25;;;;;;;50.43;29.80;;;8.50;99.90;;;;;;5006030;28;20462;-73
2023/04/17 01:58:53;;;;;;;48.40;30.50;;;8.50;99.90;;;;;;5009253;28;20499;-72
2023/04/17 02:01:19;;;;;;;48.67;30.20;;;8.50;99.90;;;;;;5009394;28;20459;-72
2023/04/17 02:03:46;;;;;;;57.13;31.60;;;8.50;99.90;;;;;;5011298;28;20863;-73
2023/04/17 02:06:12;;;;;;;56.63;29.50;;;8.50;99.90;;;;;;5011429;28;20502;-72
2023/04/17 02:08:39;;;;;;;53.43;29.83;;;8.50;99.90;;;;;;5009004;28;21249;-73
2023/04/17 02:11:06;;;;;;;53.70;30.70;;;8.50;99.90;;;;;;5009100;28;20973;-72
2023/04/17 02:13:32;;;;;;;55.37;32.03;;;8.50;99.90;;;;;;5011285;28;20518;-73
2023/04/17 02:16:00;;;;;;;57.00;31.27;;;8.50;99.90;;;;;;5010947;28;20505;-73
2023/04/17 02:18:27;;;;;;;47.93;29.53;;;8.50;99.90;;;;;;5011310;28;20455;-73
2023/04/17 02:20:54;;;;;;;51.60;31.33;;;8.40;99.90;;;;;;5010392;28;20502;-72
2023/04/17 02:23:20;;;;;;;53.33;30.03;;;8.40;99.90;;;;;;5005156;28;20550;-73
2023/04/17 02:25:47;;;;;;;48.97;30.23;;;8.40;99.90;;;;;;5010758;28;20459;-73
2023/04/17 02:28:13;;;;;;;47.27;29.93;;;8.40;99.90;;;;;;5010586;28;20955;-73
2023/04/17 02:30:40;;;;;;;51.17;30.00;;;8.40;99.90;;;;;;5010242;28;20804;-73
2023/04/17 02:33:08;;;;;;;51.67;29.30;;;8.40;99.90;;;;;;5010418;28;20451;-73
2023/04/17 02:35:35;;;;;;;53.30;30.90;;;8.40;99.90;;;;;;5010848;28;20455;-73
2023/04/17 02:38:01;;;;;;;54.50;29.50;;;8.40;99.90;;;;;;5010905;28;20470;-73
2023/04/17 02:40:28;;;;;;;47.57;29.10;;;8.30;99.90;;;;;;5010380;28;20486;-73
2023/04/17 02:42:55;;;;;;;53.10;30.47;;;8.30;99.90;;;;;;5007275;28;20483;-73
2023/04/17 02:45:22;;;;;;;54.70;30.17;;;8.30;99.90;;;;;;5010501;28;20554;-73
2023/04/17 02:47:49;;;;;;;55.80;30.03;;;8.30;99.90;;;;;;5010697;28;20451;-73
2023/04/17 02:50:16;;;;;;;54.80;30.80;;;8.30;99.90;;;;;;5006485;28;20475;-73
2023/04/17 02:52:43;;;;;;;54.23;29.60;;;8.30;99.90;;;;;;5009600;28;20458;-73
2023/04/17 02:55:10;;;;;;;59.10;32.20;;;8.30;99.90;;;;;;5002338;28;20514;-73
2023/04/17 02:57:36;;;;;;;50.07;30.90;;;8.30;99.90;;;;;;5010689;28;20454;-73
2023/04/17 03:00:07;;;;;;;56.93;30.80;;;8.30;99.90;;;;;;5009779;28;20495;-73
2023/04/17 03:02:35;;;;;;;49.57;30.10;;;8.30;99.90;;;;;;5009364;28;20489;-73
2023/04/17 03:05:03;;;;;;;51.67;29.50;;;8.30;99.90;;;;;;5010117;28;20486;-73
2023/04/17 03:07:30;;;;;;;53.30;30.43;;;8.30;99.90;;;;;;5010237;28;20470;-73
2023/04/17 03:09:58;;;;;;;52.60;30.50;;;8.30;99.90;;;;;;5009091;28;20479;-73
2023/04/17 03:12:25;;;;;;;48.80;30.33;;;8.30;99.90;;;;;;5009757;28;20462;-73
2023/04/17 03:14:52;;;;;;;55.03;30.50;;;8.30;99.90;;;;;;5010232;28;20510;-73
2023/04/17 03:17:19;;;;;;;53.50;31.50;;;8.30;99.90;;;;;;5010103;28;20939;-73
2023/04/17 03:19:46;;;;;;;50.20;29.27;;;8.20;99.90;;;;;;5009721;28;20487;-72
2023/04/17 03:22:13;;;;;;;51.50;30.10;;;8.20;99.90;;;;;;5008842;28;20463;-73
2023/04/17 03:24:41;;;;;;;49.37;29.40;;;8.20;99.90;;;;;;5001932;28;20455;-72
2023/04/17 03:27:08;;;;;;;50.50;30.40;;;8.20;99.90;;;;;;5009771;28;20447;-72
2023/04/17 03:29:34;;;;;;;51.67;30.37;;;8.20;99.90;;;;;;5009708;28;21048;-72
2023/04/17 03:32:01;;;;;;;51.50;29.33;;;8.10;99.90;;;;;;5009383;28;20478;-73
2023/04/17 03:34:28;;;;;;;57.33;31.40;;;8.10;99.90;;;;;;5009811;28;20452;-74
2023/04/17 03:36:54;;;;;;;54.87;31.83;;;8.10;99.90;;;;;;5009418;28;20851;-74
2023/04/17 03:39:21;;;;;;;48.10;28.77;;;8.10;99.90;;;;;;5009548;28;20485;-73
2023/04/17 03:41:49;;;;;;;47.07;28.30;;;8.00;99.90;;;;;;5007509;28;20513;-74
2023/04/17 03:44:17;;;;;;;50.73;30.43;;;8.00;99.90;;;;;;5009723;28;20451;-73
2023/04/17 03:46:44;;;;;;;59.10;33.10;;;8.00;99.90;;;;;;5009223;28;20539;-74
2023/04/17 03:49:10;;;;;;;58.37;33.43;;;8.00;99.90;;;;;;5009991;28;20896;-73
2023/04/17 03:51:37;;;;;;;51.57;30.47;;;8.00;99.90;;;;;;5008538;28;20991;-74
2023/04/17 03:54:04;;;;;;;51.73;30.70;;;8.00;99.90;;;;;;5009785;28;20455;-73
2023/04/17 03:56:31;;;;;;;54.73;31.80;;;8.00;99.90;;;;;;5005341;28;20510;-74
2023/04/17 03:58:58;;;;;;;53.30;31.00;;;8.00;99.90;;;;;;5007908;28;20497;-73
2023/04/17 04:01:27;;;;;;;52.50;30.90;;;8.00;99.90;;;;;;5003939;28;20483;-74
2023/04/17 04:03:53;;;;;;;56.07;30.90;;;8.00;99.90;;;;;;5009395;28;20470;-74
2023/04/17 04:06:21;;;;;;;58.53;33.03;;;7.90;99.90;;;;;;5009943;28;20451;-73
2023/04/17 04:08:48;;;;;;;54.70;31.70;;;7.90;99.90;;;;;;5008962;28;20997;-73
2023/04/17 04:11:15;;;;;;;56.20;32.03;;;7.90;99.90;;;;;;5009195;28;20942;-74
2023/04/17 04:13:42;;;;;;;58.23;32.57;;;7.80;99.90;;;;;;5009540;28;21037;-74
2023/04/17 04:16:10;;;;;;;61.10;32.30;;;7.80;99.90;;;;;;5005823;28;21021;-74
2023/04/17 04:18:36;;;;;;;54.40;31.13;;;7.80;99.90;;;;;;5009228;28;20487;-74
2023/04/17 04:21:04;;;;;;;57.43;31.67;;;7.80;99.90;;;;;;5009443;28;20513;-74
2023/04/17 04:23:32;;;;;;;61.90;32.63;;;7.70;99.90;;;;;;5004277;28;20458;-73
2023/04/17 04:26:00;;;;;;;51.20;30.33;;;7.70;99.90;;;;;;5009770;28;20568;-73
2023/04/17 04:28:29;;;;;;;59.17;32.50;;;7.70;99.90;;;;;;5009173;28;20545;-73
2023/04/17 04:30:57;;;;;;;55.90;31.50;;;7.70;99.90;;;;;;5008725;28;21053;-71
2023/04/17 04:33:26;;;;;;;56.80;32.17;;;7.70;99.90;;;;;;5009125;28;20823;-71
2023/04/17 04:35:54;;;;;;;60.93;33.23;;;7.70;99.90;;;;;;5012696;28;20469;-71
2023/04/17 04:38:29;;;;;;;54.97;30.93;;;7.60;99.90;;;;;;5012054;28;20463;-71
2023/04/17 04:41:00;;;;;;;58.50;32.80;;;7.60;99.90;;;;;;5009236;28;20862;-71
2023/04/17 04:43:28;;;;;;;52.83;31.17;;;7.60;99.90;;;;;;5011534;28;20470;-71
2023/04/17 04:45:55;;;;;;;53.70;32.10;;;7.60;99.90;;;;;;5012348;28;20486;-70
2023/04/17 04:48:21;;;;;;;55.60;32.20;;;7.60;99.90;;;;;;5006209;28;20455;-70
2023/04/17 04:50:49;;;;;;;59.13;33.70;;;7.60;99.90;;;;;;5012585;28;20881;-70
2023/04/17 04:53:16;;;;;;;62.83;32.60;;;7.70;99.90;;;;;;5012779;28;20463;-71
2023/04/17 04:55:43;;;;;;;57.97;32.67;;;7.70;99.90;;;;;;5011971;28;20471;-70
2023/04/17 04:58:09;;;;;;;58.90;31.50;;;7.70;99.90;;;;;;5005979;28;20529;-70
2023/04/17 05:00:36;;;;;;;57.27;32.97;;;7.70;99.90;;;;;;5011794;28;20487;-71
2023/04/17 05:03:03;;;;;;;61.40;34.40;;;7.80;99.90;;;;;;5011391;28;20751;-70
2023/04/17 05:05:29;;;;;;;64.10;32.77;;;7.80;99.90;;;;;;5011931;28;20501;-70
2023/04/17 05:07:57;;;;;;;66.00;34.30;;;7.80;99.90;;;;;;5002575;28;20519;-70
2023/04/17 05:10:24;;;;;;;61.63;35.07;;;7.90;99.90;;;;;;5007386;28;20553;-70
2023/04/17 05:12:51;;;;;;;61.53;32.17;;;7.90;99.90;;;;;;5006574;28;20455;-70
2023/04/17 05:15:17;;;;;;;60.93;33.40;;;7.90;99.90;;;;;;5011626;28;20787;-70
2023/04/17 05:17:44;;;;;;;55.63;31.90;;;8.00;99.90;;;;;;5012422;28;20517;-70
2023/04/17 05:20:12;;;;;;;57.63;32.10;;;8.00;99.90;;;;;;5011309;28;20525;-70
2023/04/17 05:22:38;;;;;;;61.80;34.50;;;8.00;99.90;;;;;;5011934;28;20462;-69
2023/04/17 05:25:07;;;;;;;55.00;33.40;;;8.00;99.90;;;;;;5012043;28;20711;-69
2023/04/17 05:27:34;;;;;;;53.37;30.50;;;8.10;99.90;;;;;;5009457;28;20972;-70
2023/04/17 05:30:00;;;;;;;54.40;33.27;;;8.10;99.90;;;;;;5009584;28;21208;-70
2023/04/17 05:32:29;;;;;;;56.67;32.73;;;8.10;99.90;;;;;;5011609;28;20451;-70
2023/04/17 05:34:56;;;;;;;54.63;32.00;;;8.10;99.90;;;;;;5011945;28;20826;-70
2023/04/17 05:37:23;;;;;;;61.50;31.87;;;8.10;99.90;;;;;;5010824;28;20982;-70
2023/04/17 05:39:49;;;;;;;54.80;31.40;;;8.20;99.90;;;;;;5008228;28;20534;-70
2023/04/17 05:42:17;;;;;;;52.70;31.93;;;8.20;99.90;;;;;;5003515;28;20447;-70
2023/04/17 05:44:44;;;;;;;51.00;31.27;;;8.20;99.90;;;;;;5011491;28;20463;-70
2023/04/17 05:47:11;;;;;;;56.97;32.00;;;8.30;99.90;;;;;;5011622;28;20575;-70
2023/04/17 05:49:38;;;;;;;49.97;30.23;;;8.20;99.90;;;;;;5010742;28;20467;-70
2023/04/17 05:52:05;;;;;;;54.70;33.60;;;8.30;99.90;;;;;;5010864;28;20517;-70
2023/04/17 05:54:32;;;;;;;54.37;30.43;;;8.30;99.90;;;;;;5007604;28;20779;-70
2023/04/17 05:56:59;;;;;;;54.67;32.77;;;8.40;99.90;;;;;;5008880;28;20518;-70
2023/04/17 05:59:27;;;;;;;52.63;29.67;;;8.40;99.90;;;;;;5010867;28;20471;-70
2023/04/17 06:01:54;;;;;;;55.20;32.10;;;8.40;99.90;;;;;;5007907;28;20479;-70
2023/04/17 06:04:21;;;;;;;54.77;29.70;;;8.50;99.90;;;;;;5009692;28;20943;-70
2023/04/17 06:06:47;;;;;;;57.50;31.40;;;8.50;99.90;;;;;;5007685;28;20463;-70
2023/04/17 06:09:14;;;;;;;53.00;30.20;;;8.60;99.90;;;;;;5005387;28;21054;-70
2023/04/17 06:11:41;;;;;;;52.37;30.63;;;8.60;99.90;;;;;;5005854;28;21016;-70
2023/04/17 06:14:07;;;;;;;56.80;28.80;;;8.60;99.90;;;;;;5006849;28;20455;-70
2023/04/17 06:16:35;;;;;;;50.10;30.70;;;8.70;99.90;;;;;;5007685;28;20510;-69
2023/04/17 06:19:02;;;;;;;52.60;30.53;;;8.70;99.90;;;;;;5008655;28;20474;-70
2023/04/17 06:21:30;;;;;;;50.33;30.23;;;8.80;99.90;;;;;;5011418;28;20483;-70
2023/04/17 06:23:56;;;;;;;50.20;31.37;;;8.80;99.90;;;;;;5010314;28;20490;-70
2023/04/17 06:26:23;;;;;;;50.33;30.10;;;8.80;99.90;;;;;;5009923;28;20948;-70
2023/04/17 06:28:50;;;;;;;47.57;29.23;;;8.90;99.90;;;;;;5007908;28;20483;-70
2023/04/17 06:31:17;;;;;;;48.07;29.20;;;8.90;99.90;;;;;;5004903;28;20521;-70
2023/04/17 06:33:46;;;;;;;49.73;29.83;;;8.90;99.90;;;;;;5010429;28;20462;-70
2023/04/17 06:36:13;;;;;;;50.13;30.30;;;8.90;99.90;;;;;;5015432;28;20985;-70
2023/04/17 06:38:40;;;;;;;53.17;30.70;;;8.90;99.90;;;;;;5015521;28;20513;-70
2023/04/17 06:41:06;;;;;;;48.10;28.90;;;8.90;99.90;;;;;;5015558;28;20486;-70
2023/04/17 06:43:33;;;;;;;46.83;28.43;;;8.90;99.90;;;;;;5015981;28;20463;-70
2023/04/17 06:46:00;;;;;;;54.13;29.30;;;8.90;99.90;;;;;;5014945;28;20460;-70
2023/04/17 06:48:26;;;;;;;49.03;29.00;;;8.90;99.90;;;;;;5016117;28;20463;-70
2023/04/17 06:50:55;;;;;;;46.23;28.50;;;9.00;99.90;;;;;;5015210;28;20518;-70
2023/04/17 06:53:21;;;;;;;56.53;31.23;;;9.00;99.90;;;;;;5017214;28;20470;-70
2023/04/17 06:55:48;;;;;;;49.70;29.47;;;9.00;99.90;;;;;;5015606;28;20533;-70
2023/04/17 06:58:14;;;;;;;44.60;27.63;;;9.00;99.90;;;;;;5014482;28;20796;-70
2023/04/17 07:00:41;;;;;;;51.00;30.30;;;9.00;99.90;;;;;;5015260;28;20487;-70
2023/04/17 07:03:08;;;;;;;46.27;28.20;;;9.00;99.90;;;;;;5014801;28;20508;-70
2023/04/17 07:05:34;;;;;;;47.17;29.43;;;9.10;99.90;;;;;;5015572;28;20527;-70
2023/04/17 07:08:02;;;;;;;46.70;28.43;;;9.10;99.90;;;;;;5015415;28;20455;-70
2023/04/17 07:10:29;;;;;;;48.30;29.27;;;9.10;99.90;;;;;;5015982;28;20478;-70
2023/04/17 07:12:56;;;;;;;49.33;29.97;;;9.20;99.90;;;;;;5015428;28;21003;-69
2023/04/17 07:15:22;;;;;;;52.83;31.43;;;9.30;99.90;;;;;;5015006;28;20550;-70
2023/04/17 07:17:49;;;;;;;52.70;29.87;;;9.30;99.90;;;;;;5016208;28;20969;-70
2023/04/17 07:20:15;;;;;;;53.27;30.23;;;9.30;99.90;;;;;;5013862;28;20470;-70
2023/04/17 07:22:42;;;;;;;50.63;29.53;;;9.40;99.90;;;;;;5014245;28;21002;-70
2023/04/17 07:25:10;;;;;;;45.13;28.17;;;9.50;99.90;;;;;;5015496;28;20467;-70
2023/04/17 07:27:37;;;;;;;47.73;27.77;;;9.60;99.90;;;;;;5016083;28;20464;-70
2023/04/17 07:30:06;;;;;;;48.07;28.00;;;9.60;99.90;;;;;;5015148;28;20474;-70
2023/04/17 07:32:32;;;;;;;52.60;29.03;;;9.60;99.90;;;;;;5015930;28;20454;-70
2023/04/17 07:34:59;;;;;;;49.40;28.60;;;9.60;99.90;;;;;;5014721;28;20454;-70
2023/04/17 07:37:26;;;;;;;47.33;27.30;;;9.60;99.90;;;;;;5015873;28;20905;-70
2023/04/17 07:39:53;;;;;;;47.13;28.00;;;9.70;99.90;;;;;;5010967;28;20474;-70
2023/04/17 07:42:21;;;;;;;53.20;26.97;;;9.70;99.90;;;;;;5013632;28;20478;-70
2023/04/17 07:44:48;;;;;;;49.40;28.90;;;9.70;99.90;;;;;;5016116;28;20454;-70
2023/04/17 07:47:15;;;;;;;45.70;27.47;;;9.60;99.90;;;;;;5016295;28;20533;-70
2023/04/17 07:49:45;;;;;;;46.43;27.80;;;9.60;99.90;;;;;;5015682;28;20531;-70
2023/04/17 07:52:12;;;;;;;47.20;27.50;;;9.70;99.90;;;;;;5014114;28;20462;-70
2023/04/17 07:54:39;;;;;;;51.67;27.17;;;9.70;99.90;;;;;;5016436;28;20535;-69
2023/04/17 07:57:07;;;;;;;43.97;26.97;;;9.70;99.90;;;;;;5013361;28;21199;-69
2023/04/17 07:59:36;;;;;;;46.00;26.30;;;9.80;99.90;;;;;;5016141;28;21125;-69
2023/04/17 08:02:03;;;;;;;45.93;26.57;;;9.90;99.90;;;;;;5013248;28;20580;-69
2023/04/17 08:04:30;;;;;;;45.23;26.10;;;10.10;99.90;;;;;;5015206;28;20839;-69
2023/04/17 08:06:56;;;;;;;37.87;24.73;;;10.30;99.90;;;;;;5015192;28;21204;-70
2023/04/17 08:09:23;;;;;;;41.93;25.20;;;10.40;99.90;;;;;;5017835;28;20513;-69
2023/04/17 08:11:50;;;;;;;49.83;26.20;;;10.50;99.90;;;;;;5017567;28;20517;-69
2023/04/17 08:14:19;;;;;;;41.13;25.17;;;10.60;99.90;;;;;;5018247;28;20461;-69
2023/04/17 08:16:47;;;;;;;40.57;22.20;;;10.70;99.90;;;;;;5019357;28;20551;-69
2023/04/17 08:19:13;;;;;;;36.00;22.80;;;10.80;99.90;;;;;;5018258;28;21056;-69
2023/04/17 08:21:40;;;;;;;36.30;21.83;;;10.90;99.90;;;;;;5017887;28;20535;-69
2023/04/17 08:24:07;;;;;;;30.37;20.73;;;11.00;99.90;;;;;;5018389;28;20569;-69
2023/04/17 08:26:34;;;;;;;37.23;20.47;;;11.10;99.90;;;;;;5019053;28;20450;-69
2023/04/17 08:29:03;;;;;;;31.83;20.03;;;11.20;99.90;;;;;;5019081;28;20911;-69
2023/04/17 08:31:29;;;;;;;28.43;19.50;;;11.40;99.90;;;;;;5017223;28;20541;-70
2023/04/17 08:34:00;;;;;;;32.73;19.40;;;11.80;99.90;;;;;;5017463;28;20879;-69
2023/04/17 08:36:27;;;;;;;32.23;18.73;;;12.00;99.90;;;;;;5018223;28;20529;-68
2023/04/17 08:38:54;;;;;;;26.53;16.60;;;12.40;99.90;;;;;;5018893;28;20482;-68
2023/04/17 08:41:23;;;;;;;25.43;16.53;;;12.80;99.90;;;;;;5018285;28;20486;-68
2023/04/17 08:43:50;;;;;;;28.20;16.33;;;13.20;99.90;;;;;;5018849;28;20470;-69
2023/04/17 08:46:18;;;;;;;21.73;15.43;;;13.60;99.90;;;;;;5016610;28;20952;-69
2023/04/17 08:48:45;;;;;;;22.63;15.50;;;13.70;99.90;;;;;;5017862;28;20544;-69
2023/04/17 08:51:14;;;;;;;24.00;16.47;;;13.70;99.90;;;;;;5016890;28;20976;-69
2023/04/17 08:53:41;;;;;;;33.33;16.93;;;13.70;99.90;;;;;;5018509;28;20545;-69
2023/04/17 08:56:08;;;;;;;26.13;17.60;;;13.90;99.90;;;;;;5016929;28;20954;-69
2023/04/17 08:58:35;;;;;;;20.13;15.07;;;14.40;99.90;;;;;;5016950;28;20945;-69
2023/04/17 09:01:08;;;;;;;22.47;15.87;;;14.90;99.90;;;;;;5017904;28;20462;-68
2023/04/17 09:03:41;;;;;;;18.47;13.90;;;15.10;99.90;;;;;;5018585;28;20459;-69
2023/04/17 09:06:08;;;;;;;18.10;13.57;;;14.80;99.90;;;;;;5017245;28;20501;-68
2023/04/17 09:08:37;;;;;;;21.80;14.43;;;14.00;99.90;;;;;;5016695;28;20467;-68
2023/04/17 09:11:04;;;;;;;19.33;14.70;;;13.50;99.90;;;;;;5016095;28;20939;-69
2023/04/17 09:13:40;;;;;;;21.20;13.03;;;13.20;99.90;;;;;;5018436;28;20455;-68
2023/04/17 09:16:09;;;;;;;20.67;13.80;;;13.00;99.90;;;;;;5017065;28;20940;-69
2023/04/17 09:18:37;;;;;;;25.60;14.70;;;12.90;99.90;;;;;;5017407;28;20493;-68
2023/04/17 09:21:05;;;;;;;18.93;12.30;;;12.70;99.90;;;;;;5015283;28;20509;-68
2023/04/17 09:23:48;;;;;;;19.83;13.90;;;12.70;99.90;;;;;;5018118;28;20456;-68
2023/04/17 09:26:16;;;;;;;20.93;14.50;;;12.80;99.90;;;;;;5016811;28;20462;-68
2023/04/17 09:29:02;;;;;;;21.43;14.00;;;13.00;99.90;;;;;;5017398;28;20475;-69
2023/04/17 09:31:30;;;;;;;17.97;12.87;;;13.00;99.90;;;;;;5016371;28;20473;-69
2023/04/17 09:33:57;;;;;;;19.73;13.20;;;12.80;99.90;;;;;;5012835;28;20447;-69
2023/04/17 09:36:26;;;;;;;22.00;13.00;;;12.60;99.90;;;;;;5015496;28;20466;-69
2023/04/17 09:38:54;;;;;;;23.83;14.10;;;12.50;99.90;;;;;;5016076;28;20558;-69
2023/04/17 09:41:26;;;;;;;23.00;14.17;;;12.30;99.90;;;;;;5014851;28;20486;-69
2023/04/17 09:43:55;;;;;;;18.77;13.73;;;11.90;99.90;;;;;;5017215;28;20455;-69
2023/04/17 09:46:32;;;;;;;20.47;14.00;;;11.70;99.90;;;;;;5016400;28;20509;-69
2023/04/17 09:49:01;;;;;;;20.20;14.13;;;11.70;99.90;;;;;;5017181;28;20482;-69
2023/04/17 09:51:29;;;;;;;19.17;13.70;;;11.80;99.90;;;;;;5015833;28;20500;-69
2023/04/17 09:53:59;;;;;;;17.87;12.70;;;12.00;99.90;;;;;;5014812;28;20483;-69
2023/04/17 09:56:26;;;;;;;15.00;12.47;;;12.30;99.90;;;;;;5016998;28;20455;-69
2023/04/17 09:58:53;;;;;;;14.70;10.60;;;12.50;99.90;;;;;;5016279;28;20482;-69
2023/04/17 10:01:21;;;;;;;15.67;9.03;;;12.70;99.90;;;;;;5015839;28;20529;-69
2023/04/17 10:03:48;;;;;;;10.03;7.80;;;12.90;99.90;;;;;;5015962;28;20509;-69
2023/04/17 10:06:16;;;;;;;10.37;8.07;;;12.90;99.90;;;;;;5014567;28;20454;-69
2023/04/17 10:08:43;;;;;;;11.80;8.60;;;12.80;99.90;;;;;;5014372;28;21056;-69
2023/04/17 10:11:11;;;;;;;10.73;8.27;;;12.80;99.90;;;;;;5014547;28;20950;-69
2023/04/17 10:13:39;;;;;;;11.03;8.03;;;12.90;99.90;;;;;;5014362;28;20953;-69
2023/04/17 10:16:06;;;;;;;11.07;8.63;;;12.90;99.90;;;;;;5012992;28;20458;-69
2023/04/17 10:18:33;;;;;;;13.97;8.40;;;12.80;99.90;;;;;;5016236;28;20588;-69
2023/04/17 10:21:20;;;;;;;11.20;8.90;;;12.90;99.90;;;;;;5015861;28;20529;-69
2023/04/17 10:23:48;;;;;;;12.20;7.67;;;12.80;99.90;;;;;;5014945;28;20454;-69
2023/04/17 10:26:46;;;;;;;9.60;8.60;;;12.70;99.90;;;;;;5015702;28;20465;-69
2023/04/17 10:29:13;;;;;;;13.97;8.67;;;12.60;99.90;;;;;;5015501;28;20473;-69
2023/04/17 10:32:14;;;;;;;12.17;8.77;;;12.60;99.90;;;;;;5014878;28;21460;-69
2023/04/17 10:34:40;;;;;;;13.90;9.13;;;12.60;99.90;;;;;;5014550;28;20453;-70
2023/04/17 10:37:07;;;;;;;11.67;9.17;;;12.50;99.90;;;;;;5014784;28;20450;-70
2023/04/17 10:39:51;;;;;;;11.70;8.70;;;12.50;99.90;;;;;;5016691;28;21253;-69
2023/04/17 10:42:20;;;;;;;15.60;9.70;;;12.50;99.90;;;;;;5015856;28;20494;-69
2023/04/17 10:44:47;;;;;;;12.67;9.77;;;12.50;99.90;;;;;;5016301;28;20516;-70
2023/04/17 10:47:14;;;;;;;10.45;7.97;;;12.50;99.90;;;;;;5015413;28;20984;-69
2023/04/17 10:49:51;;;;;;;10.30;7.80;;;12.60;99.90;;;;;;5014480;28;20447;-69
2023/04/17 10:52:36;;;;;;;9.75;7.30;;;12.90;99.90;;;;;;5014718;28;20443;-70
2023/04/17 10:55:05;;;;;;;15.93;8.75;;;13.00;99.90;;;;;;5014720;28;20463;-70
2023/04/17 10:57:56;;;;;;;14.23;9.47;;;13.20;99.90;;;;;;5016309;28;20235;-70
2023/04/17 11:00:30;;;;;;;12.40;7.40;;;13.20;99.90;;;;;;5014704;28;20477;-69
2023/04/17 11:02:57;;;;;;;9.73;8.07;;;13.20;99.90;;;;;;5015616;28;20910;-70
2023/04/17 11:05:23;;;;;;;9.20;6.70;;;13.30;99.90;;;;;;5014931;28;20513;-69
2023/04/17 11:07:50;;;;;;;11.50;6.70;;;13.30;99.90;;;;;;5015693;28;20452;-69
2023/04/17 11:10:18;;;;;;;8.73;6.10;;;13.40;99.90;;;;;;5014606;28;20449;-69
2023/04/17 11:12:47;;;;;;;10.27;7.53;;;13.40;99.90;;;;;;5013900;28;20776;-69
2023/04/17 11:15:16;;;;;;;10.60;7.10;;;13.50;99.90;;;;;;5014723;28;20889;-69
2023/04/17 11:17:46;;;;;;;11.52;6.78;;;13.50;99.90;;;;;;5015670;28;20446;-70
2023/04/17 11:20:16;;;;;;;9.60;7.97;;;13.40;99.90;;;;;;5015265;28;20317;-69
2023/04/17 11:22:43;;;;;;;9.60;7.30;;;13.40;99.90;;;;;;5013626;28;20572;-70
2023/04/17 11:25:22;;;;;;;10.87;7.50;;;13.20;99.90;;;;;;5015287;28;20460;-70
2023/04/17 11:27:54;;;;;;;8.40;6.43;;;13.20;99.90;;;;;;5013708;28;20461;-69
2023/04/17 11:30:30;;;;;;;8.93;7.13;;;13.20;99.90;;;;;;5011846;28;20527;-69
2023/04/17 11:32:58;;;;;;;7.35;6.35;;;13.20;99.90;;;;;;5013455;28;20457;-69
2023/04/17 11:35:29;;;;;;;8.60;7.40;;;13.20;99.90;;;;;;5014868;28;20867;-70
2023/04/17 11:38:13;;;;;;;12.77;7.63;;;13.20;99.90;;;;;;5016371;28;20449;-70
2023/04/17 11:40:44;;;;;;;9.48;7.18;;;13.50;99.90;;;;;;5011861;28;20929;-70
2023/04/17 11:43:11;;;;;;;9.50;7.22;;;13.40;99.90;;;;;;5015967;28;20530;-70
2023/04/17 11:45:40;;;;;;;23.75;13.30;;;13.30;99.90;;;;;;5018874;28;20523;-69
2023/04/17 11:48:09;;;;;;;13.13;9.03;;;13.40;99.90;;;;;;5018300;28;20246;-69
2023/04/17 11:50:36;;;;;;;59.53;41.47;;;13.50;99.90;;;;;;5019612;28;20477;-69
2023/04/17 11:53:05;;;;;;;12.83;9.53;;;13.60;99.90;;;;;;5018519;28;20454;-68
2023/04/17 11:55:33;;;;;;;11.70;7.87;;;13.60;99.90;;;;;;5019029;28;21196;-69
2023/04/17 11:58:02;;;;;;;10.33;7.50;;;13.60;99.90;;;;;;5015763;28;20509;-69
2023/04/17 12:00:30;;;;;;;8.82;6.93;;;13.80;99.90;;;;;;5016774;28;20543;-69
2023/04/17 12:03:01;;;;;;;13.10;7.73;;;13.80;99.90;;;;;;5017429;28;20254;-69
2023/04/17 12:05:30;;;;;;;26.83;8.63;;;13.80;99.90;;;;;;5017495;28;20945;-69
2023/04/17 12:08:04;;;;;;;23.88;16.10;;;13.80;99.90;;;;;;5018129;28;20454;-69
2023/04/17 12:10:38;;;;;;;9.03;7.63;;;13.80;99.90;;;;;;5018224;28;20220;-69
2023/04/17 12:13:05;;;;;;;13.03;7.40;;;13.90;99.90;;;;;;5019085;28;20479;-69
2023/04/17 12:15:32;;;;;;;12.63;7.80;;;13.80;99.90;;;;;;5017797;28;20455;-70
2023/04/17 12:18:04;;;;;;;8.77;7.63;;;13.60;99.90;;;;;;5017039;28;20813;-70
2023/04/17 12:20:31;;;;;;;9.80;7.30;;;13.50;99.90;;;;;;5018239;28;20937;-70
2023/04/17 12:22:57;;;;;;;11.50;6.90;;;13.80;99.90;;;;;;5013594;28;20884;-71
2023/04/17 12:25:24;;;;;;;14.13;7.80;;;14.00;99.90;;;;;;5018838;28;20216;-71
2023/04/17 12:27:51;;;;;;;8.30;7.40;;;14.00;99.90;;;;;;5016958;28;20462;-71
2023/04/17 12:30:17;;;;;;;8.00;7.20;;;13.80;99.90;;;;;;5015775;28;20484;-71
2023/04/17 12:32:47;;;;;;;9.50;7.60;;;13.70;99.90;;;;;;5018537;28;20430;-71
2023/04/17 12:35:15;;;;;;;8.47;7.60;;;13.50;99.90;;;;;;5018608;28;20537;-70
2023/04/17 12:37:47;;;;;;;8.17;6.83;;;13.40;99.90;;;;;;5016847;28;20525;-69
2023/04/17 12:40:14;;;;;;;14.20;6.23;;;13.20;99.90;;;;;;5015328;28;20476;-70